Time;durP1;ratioP1;P1;durP2;ratioP2;P2;SDS_P1;SDS_P2;PMS_P1;PMS_P2;Temp;Humidity;BMP_temperature;BMP_pressure;BME280_temperature;BME280_humidity;BME280_pressure;Samples;Min_cycle;Max_cycle;Signal;HPM_P1;HPM_P2
2021/07/29 00:01:16;;;;;;;6.68;3.55;;;13.40;90.50;;;;;;4975479;28;20102;-70
2021/07/29 00:03:43;;;;;;;6.55;3.38;;;13.50;91.30;;;;;;4974475;28;20031;-71
2021/07/29 00:06:18;;;;;;;3.92;3.13;;;13.60;90.90;;;;;;4974581;28;20558;-74
2021/07/29 00:08:45;;;;;;;5.40;3.42;;;13.70;90.70;;;;;;4975604;28;20026;-73
2021/07/29 00:11:18;;;;;;;6.70;3.70;;;13.80;91.00;;;;;;4975407;28;20031;-70
2021/07/29 00:13:45;;;;;;;6.47;3.55;;;13.80;90.50;;;;;;4975523;28;20055;-70
2021/07/29 00:16:12;;;;;;;5.82;3.60;;;14.00;90.40;;;;;;4974115;28;20039;-73
2021/07/29 00:21:25;;;;;;;4.28;3.03;;;13.90;88.70;;;;;;4975297;28;20030;-73
2021/07/29 00:23:52;;;;;;;7.50;3.70;;;13.90;89.00;;;;;;4975330;28;20079;-71
2021/07/29 00:26:20;;;;;;;4.88;2.92;;;14.00;89.90;;;;;;4975407;28;20046;-72
2021/07/29 00:28:47;;;;;;;5.63;3.00;;;14.00;89.50;;;;;;4975212;28;20106;-70
2021/07/29 00:31:14;;;;;;;4.90;2.85;;;14.00;89.60;;;;;;4975153;28;20023;-72
2021/07/29 00:33:42;;;;;;;3.75;3.00;;;14.00;88.50;;;;;;4975320;28;20033;-72
2021/07/29 00:36:19;;;;;;;8.23;2.90;;;14.10;88.50;;;;;;4973818;28;20031;-73
2021/07/29 00:38:46;;;;;;;4.13;2.97;;;14.20;89.50;;;;;;4974162;28;20057;-72
2021/07/29 00:41:14;;;;;;;5.05;2.78;;;14.30;89.50;;;;;;4974062;28;20025;-73
2021/07/29 00:43:42;;;;;;;5.80;3.58;;;14.30;88.00;;;;;;4975234;28;20498;-73
2021/07/29 00:46:10;;;;;;;4.30;3.33;;;14.40;88.10;;;;;;4975172;28;20042;-73
2021/07/29 00:48:38;;;;;;;4.78;3.08;;;14.40;87.10;;;;;;4973926;28;20034;-71
2021/07/29 00:51:05;;;;;;;5.78;3.03;;;14.40;87.70;;;;;;4974959;28;20054;-69
2021/07/29 00:53:34;;;;;;;3.45;2.70;;;14.40;87.10;;;;;;4973697;28;20403;-69
2021/07/29 00:56:01;;;;;;;5.05;4.00;;;14.50;86.80;;;;;;4973529;28;20117;-69
2021/07/29 00:58:29;;;;;;;5.68;3.20;;;14.60;85.80;;;;;;4974761;28;20491;-69
2021/07/29 01:00:56;;;;;;;8.70;3.20;;;14.60;86.70;;;;;;4973504;28;20023;-69
2021/07/29 01:03:24;;;;;;;5.90;2.80;;;14.60;85.90;;;;;;4974698;28;20023;-69
2021/07/29 01:05:51;;;;;;;4.80;3.08;;;14.70;85.80;;;;;;4974677;28;20023;-68
2021/07/29 01:08:18;;;;;;;5.38;2.40;;;14.80;86.30;;;;;;4974766;28;20543;-68
2021/07/29 01:10:46;;;;;;;5.68;2.22;;;14.90;84.30;;;;;;4973325;28;20169;-68
2021/07/29 01:13:13;;;;;;;4.78;2.08;;;14.90;84.60;;;;;;4973783;28;20123;-69
2021/07/29 01:15:40;;;;;;;4.15;2.35;;;15.00;84.00;;;;;;4974458;28;20031;-68
2021/07/29 01:18:08;;;;;;;5.55;2.22;;;15.10;83.30;;;;;;4974429;28;20019;-68
2021/07/29 01:20:35;;;;;;;3.58;2.50;;;15.20;83.60;;;;;;4974437;28;20031;-68
2021/07/29 01:23:03;;;;;;;4.85;2.30;;;15.30;82.20;;;;;;4973083;28;20031;-68
2021/07/29 01:25:30;;;;;;;3.55;2.60;;;15.40;80.80;;;;;;4973155;28;20027;-69
2021/07/29 01:27:57;;;;;;;3.33;2.47;;;15.40;80.00;;;;;;4973050;28;20133;-69
2021/07/29 01:30:25;;;;;;;4.00;2.20;;;15.40;80.20;;;;;;4974238;28;20390;-69
2021/07/29 01:32:52;;;;;;;3.67;2.20;;;15.40;80.10;;;;;;4974373;28;20399;-70
2021/07/29 01:35:20;;;;;;;3.03;2.28;;;15.50;79.50;;;;;;4974347;28;20087;-69
2021/07/29 01:37:47;;;;;;;3.47;2.30;;;15.60;81.30;;;;;;4972944;28;20074;-68
2021/07/29 01:40:15;;;;;;;4.82;2.42;;;15.50;80.00;;;;;;4972938;28;20041;-69
2021/07/29 01:42:42;;;;;;;4.40;2.72;;;15.60;79.40;;;;;;4974203;28;20479;-69
2021/07/29 01:45:10;;;;;;;3.47;2.45;;;15.50;78.30;;;;;;4973070;28;20027;-68
2021/07/29 01:47:37;;;;;;;3.55;2.40;;;15.50;79.60;;;;;;4972795;28;20034;-69
2021/07/29 01:50:05;;;;;;;5.22;2.97;;;15.70;79.10;;;;;;4974271;28;20031;-69
2021/07/29 01:52:32;;;;;;;6.00;2.55;;;15.70;77.60;;;;;;4974154;28;20034;-68
2021/07/29 01:55:00;;;;;;;3.45;2.60;;;15.70;77.90;;;;;;4972676;28;20522;-69
2021/07/29 01:57:27;;;;;;;2.47;2.20;;;15.70;76.80;;;;;;4973997;28;20435;-69
2021/07/29 01:59:54;;;;;;;2.90;2.20;;;15.60;77.20;;;;;;4974051;28;20023;-69
2021/07/29 02:02:22;;;;;;;3.50;2.20;;;15.70;77.50;;;;;;4974209;28;20057;-69
2021/07/29 02:04:49;;;;;;;3.40;2.35;;;15.80;77.30;;;;;;4974076;28;20038;-70
2021/07/29 02:07:16;;;;;;;3.83;2.25;;;15.90;75.90;;;;;;4974099;28;20051;-68
2021/07/29 02:09:43;;;;;;;5.25;2.70;;;16.00;76.60;;;;;;4974173;28;20023;-70
2021/07/29 02:12:11;;;;;;;5.88;3.05;;;16.00;76.10;;;;;;4973773;28;20051;-69
2021/07/29 02:14:38;;;;;;;2.92;2.58;;;16.10;75.80;;;;;;4972611;28;20044;-68
2021/07/29 02:17:05;;;;;;;4.50;2.55;;;16.20;75.10;;;;;;4973834;28;20026;-68
2021/07/29 02:19:33;;;;;;;2.58;2.38;;;16.30;75.30;;;;;;4973852;28;20089;-68
2021/07/29 02:22:00;;;;;;;3.75;2.13;;;16.30;74.80;;;;;;4973782;28;20033;-69
2021/07/29 02:24:27;;;;;;;2.65;2.45;;;16.30;74.10;;;;;;4974928;28;20021;-70
2021/07/29 02:26:55;;;;;;;5.45;2.05;;;16.40;73.60;;;;;;4977729;28;20098;-69
2021/07/29 02:29:22;;;;;;;2.50;2.30;;;16.50;73.60;;;;;;4977314;28;20549;-70
2021/07/29 02:31:49;;;;;;;3.65;2.20;;;16.50;72.90;;;;;;4977431;28;20015;-68
2021/07/29 02:34:17;;;;;;;3.65;2.42;;;16.60;73.10;;;;;;4976023;28;20027;-70
2021/07/29 02:36:44;;;;;;;2.63;2.00;;;16.50;72.80;;;;;;4977481;28;20058;-69
2021/07/29 02:39:11;;;;;;;5.95;2.13;;;16.50;73.20;;;;;;4975991;28;20475;-69
2021/07/29 02:41:39;;;;;;;2.75;1.85;;;16.60;74.00;;;;;;4977290;28;20106;-69
2021/07/29 02:44:06;;;;;;;2.85;2.13;;;16.50;72.60;;;;;;4977347;28;20479;-69
2021/07/29 02:46:33;;;;;;;5.15;2.53;;;16.50;72.80;;;;;;4977343;28;20025;-69
2021/07/29 02:49:01;;;;;;;3.90;2.20;;;16.70;73.10;;;;;;4975876;28;20037;-70
2021/07/29 02:51:28;;;;;;;3.92;2.30;;;16.60;72.40;;;;;;4976090;28;20030;-69
2021/07/29 02:53:56;;;;;;;3.22;2.38;;;16.70;72.50;;;;;;4977054;28;20034;-70
2021/07/29 02:56:23;;;;;;;2.95;2.20;;;16.70;71.10;;;;;;4976932;28;20117;-69
2021/07/29 02:58:50;;;;;;;2.30;2.00;;;16.70;72.10;;;;;;4976979;28;20031;-70
2021/07/29 03:01:18;;;;;;;2.88;2.35;;;16.80;70.60;;;;;;4977073;28;20027;-71
2021/07/29 03:03:45;;;;;;;4.00;2.22;;;17.00;70.40;;;;;;4976846;28;20018;-70
2021/07/29 03:06:12;;;;;;;2.95;2.08;;;17.00;70.20;;;;;;4976836;28;20114;-70
2021/07/29 03:08:40;;;;;;;3.42;2.30;;;17.20;71.60;;;;;;4977042;28;20455;-70
2021/07/29 03:11:10;;;;;;;2.95;2.67;;;17.20;70.70;;;;;;4976590;28;20026;-69
2021/07/29 03:13:37;;;;;;;2.40;2.20;;;17.20;70.50;;;;;;4976838;28;20042;-70
2021/07/29 03:16:05;;;;;;;4.68;2.70;;;17.20;69.70;;;;;;4976604;28;20101;-70
2021/07/29 03:18:32;;;;;;;2.38;2.10;;;17.10;69.30;;;;;;4976588;28;20115;-70
2021/07/29 03:21:00;;;;;;;3.60;2.22;;;17.20;69.20;;;;;;4976617;28;20019;-69
2021/07/29 03:23:27;;;;;;;2.60;2.03;;;17.50;69.20;;;;;;4976640;28;20464;-69
2021/07/29 03:25:55;;;;;;;2.88;2.63;;;17.50;69.00;;;;;;4976116;28;20029;-70
2021/07/29 03:28:22;;;;;;;3.20;2.00;;;17.40;68.30;;;;;;4975110;28;20027;-69
2021/07/29 03:30:54;;;;;;;3.05;2.00;;;17.40;68.90;;;;;;4976329;28;20027;-69
2021/07/29 03:33:22;;;;;;;2.65;2.17;;;17.30;68.40;;;;;;4976419;28;20061;-69
2021/07/29 03:35:50;;;;;;;3.78;2.20;;;17.20;68.20;;;;;;4973845;28;20031;-70
2021/07/29 03:38:17;;;;;;;2.88;2.58;;;17.20;69.10;;;;;;4976249;28;20023;-70
2021/07/29 03:40:46;;;;;;;3.40;2.20;;;17.20;68.90;;;;;;4974771;28;20468;-69
2021/07/29 03:43:14;;;;;;;4.03;2.30;;;17.20;68.90;;;;;;4974760;28;20027;-69
2021/07/29 03:45:43;;;;;;;2.47;2.20;;;17.30;69.40;;;;;;4976226;28;20113;-70
2021/07/29 03:48:11;;;;;;;3.40;2.00;;;17.30;68.10;;;;;;4975898;28;20102;-68
2021/07/29 03:50:40;;;;;;;2.40;2.20;;;17.30;68.80;;;;;;4975961;28;20023;-70
2021/07/29 03:53:07;;;;;;;2.97;2.30;;;17.20;67.50;;;;;;4975945;28;20035;-69
2021/07/29 03:55:35;;;;;;;3.35;2.30;;;17.30;68.00;;;;;;4975834;28;20031;-69
2021/07/29 03:58:02;;;;;;;2.20;2.10;;;17.30;67.20;;;;;;4975961;28;20035;-71
2021/07/29 04:00:30;;;;;;;2.28;2.08;;;17.30;66.50;;;;;;4974528;28;20023;-71
2021/07/29 04:02:59;;;;;;;2.58;2.30;;;17.30;67.30;;;;;;4975793;28;20023;-71
2021/07/29 04:05:26;;;;;;;2.20;2.00;;;17.40;66.80;;;;;;4974304;28;20034;-70
2021/07/29 04:07:54;;;;;;;3.53;2.40;;;17.50;66.30;;;;;;4975625;28;20023;-70
2021/07/29 04:10:21;;;;;;;3.47;2.22;;;17.50;65.60;;;;;;4974108;28;20037;-70
2021/07/29 04:12:48;;;;;;;4.05;2.10;;;17.50;67.50;;;;;;4975175;28;20081;-69
2021/07/29 04:15:16;;;;;;;2.17;2.00;;;17.50;65.70;;;;;;4973943;28;20089;-69
2021/07/29 04:17:43;;;;;;;1.80;1.70;;;17.50;65.40;;;;;;4975224;28;20038;-70
2021/07/29 04:20:11;;;;;;;1.83;1.73;;;17.50;63.20;;;;;;4975185;28;20365;-69
2021/07/29 04:22:38;;;;;;;2.03;1.83;;;17.40;63.90;;;;;;4975111;28;20090;-69
2021/07/29 04:25:06;;;;;;;2.50;2.30;;;17.20;64.70;;;;;;4974916;28;20023;-69
2021/07/29 04:27:33;;;;;;;2.15;1.95;;;17.50;64.00;;;;;;4975144;28;20058;-71
2021/07/29 04:30:00;;;;;;;3.70;2.38;;;17.50;63.20;;;;;;4973780;28;20038;-69
2021/07/29 04:32:34;;;;;;;2.40;2.20;;;17.50;62.60;;;;;;4973627;28;20367;-70
2021/07/29 04:35:02;;;;;;;3.92;2.25;;;17.50;63.00;;;;;;4974942;28;20030;-70
2021/07/29 04:37:30;;;;;;;2.60;2.40;;;17.50;63.50;;;;;;4974733;28;20050;-71
2021/07/29 04:39:57;;;;;;;2.55;2.22;;;17.60;63.10;;;;;;4974733;28;20428;-69
2021/07/29 04:42:24;;;;;;;2.30;2.10;;;17.50;63.70;;;;;;4974863;28;20046;-71
2021/07/29 04:44:52;;;;;;;1.95;1.80;;;17.40;63.20;;;;;;4974798;28;20018;-69
2021/07/29 04:47:19;;;;;;;2.20;2.00;;;17.30;63.20;;;;;;4973378;28;20114;-69
2021/07/29 04:49:46;;;;;;;2.35;1.90;;;17.20;63.00;;;;;;4974577;28;20023;-68
2021/07/29 04:52:14;;;;;;;2.35;2.15;;;17.20;61.70;;;;;;4974759;28;20030;-68
2021/07/29 04:54:41;;;;;;;2.42;1.90;;;17.20;63.00;;;;;;4973232;28;20023;-68
2021/07/29 04:57:09;;;;;;;2.58;2.38;;;17.10;63.30;;;;;;4974602;28;20026;-69
2021/07/29 04:59:40;;;;;;;2.20;2.00;;;17.10;63.10;;;;;;4973068;28;20037;-69
2021/07/29 05:02:08;;;;;;;2.58;2.25;;;17.00;62.40;;;;;;4974516;28;20050;-69
2021/07/29 05:04:36;;;;;;;2.13;1.95;;;17.00;63.00;;;;;;4974602;28;20395;-69
2021/07/29 05:07:04;;;;;;;2.30;2.10;;;16.90;64.00;;;;;;4974492;28;20030;-69
2021/07/29 05:09:31;;;;;;;3.53;2.30;;;17.00;62.80;;;;;;4973191;28;20023;-69
2021/07/29 05:11:58;;;;;;;2.30;2.10;;;16.90;63.40;;;;;;4972882;28;20132;-69
2021/07/29 05:14:26;;;;;;;2.10;2.00;;;16.90;64.00;;;;;;4974351;28;20368;-69
2021/07/29 05:16:53;;;;;;;2.50;2.30;;;16.90;64.00;;;;;;4974362;28;20086;-70
2021/07/29 05:19:24;;;;;;;2.30;2.20;;;16.90;64.80;;;;;;4974438;28;20134;-69
2021/07/29 05:21:51;;;;;;;2.70;2.50;;;16.90;64.40;;;;;;4974304;28;20025;-69
2021/07/29 05:24:18;;;;;;;2.30;2.10;;;16.80;65.60;;;;;;4972969;28;20038;-69
2021/07/29 05:26:46;;;;;;;2.20;2.00;;;16.80;64.90;;;;;;4972811;28;20472;-68
2021/07/29 05:29:13;;;;;;;2.53;2.33;;;16.80;64.90;;;;;;4974238;28;20115;-70
2021/07/29 05:31:41;;;;;;;2.72;1.98;;;16.70;65.40;;;;;;4974071;28;20037;-69
2021/07/29 05:34:12;;;;;;;2.50;2.30;;;16.70;66.40;;;;;;4974073;28;20065;-69
2021/07/29 05:36:39;;;;;;;;;;;16.70;66.40;;;;;;4974430;28;20044;-69
2021/07/29 05:39:06;;;;;;;2.28;2.13;;;16.60;65.80;;;;;;4972791;28;19910;-69
2021/07/29 05:41:33;;;;;;;2.65;2.40;;;16.70;67.30;;;;;;4972749;28;20073;-69
2021/07/29 05:44:01;;;;;;;3.15;2.30;;;16.70;66.10;;;;;;4974068;28;20023;-68
2021/07/29 05:46:28;;;;;;;2.45;2.25;;;16.60;67.80;;;;;;4974173;28;20027;-68
2021/07/29 05:48:55;;;;;;;2.60;2.40;;;16.60;67.00;;;;;;4974383;28;20472;-68
2021/07/29 05:51:23;;;;;;;2.83;2.10;;;16.60;66.90;;;;;;4973989;28;20054;-69
2021/07/29 05:53:50;;;;;;;2.55;2.30;;;16.50;68.00;;;;;;4972735;28;20054;-68
2021/07/29 05:56:17;;;;;;;2.97;2.58;;;16.40;68.80;;;;;;4974048;28;20076;-69
2021/07/29 05:58:45;;;;;;;2.58;2.38;;;16.40;68.30;;;;;;4973891;28;20537;-69
2021/07/29 06:01:12;;;;;;;3.22;2.40;;;16.30;68.70;;;;;;4977876;28;20034;-69
2021/07/29 06:03:39;;;;;;;3.10;2.40;;;16.30;68.90;;;;;;4977980;28;20515;-69
2021/07/29 06:06:06;;;;;;;2.58;2.00;;;16.30;69.20;;;;;;4977735;28;20055;-69
2021/07/29 06:08:34;;;;;;;2.33;2.17;;;16.20;69.70;;;;;;4976493;28;20122;-70
2021/07/29 06:11:04;;;;;;;2.88;2.30;;;16.20;70.10;;;;;;4976348;28;20573;-70
2021/07/29 06:13:32;;;;;;;3.80;2.10;;;16.20;70.10;;;;;;4976311;28;20066;-70
2021/07/29 06:16:02;;;;;;;2.45;2.20;;;16.10;69.90;;;;;;4977564;28;20034;-70
2021/07/29 06:18:30;;;;;;;2.50;2.33;;;16.00;69.40;;;;;;4977663;28;20146;-69
2021/07/29 06:20:57;;;;;;;3.30;2.40;;;16.00;70.10;;;;;;4977654;28;20023;-71
2021/07/29 06:23:24;;;;;;;3.35;2.70;;;15.90;70.10;;;;;;4977458;28;20439;-71
2021/07/29 06:25:52;;;;;;;3.38;2.10;;;15.90;70.40;;;;;;4977791;28;20033;-71
2021/07/29 06:28:19;;;;;;;3.05;2.10;;;15.80;70.70;;;;;;4977418;28;20026;-72
2021/07/29 06:30:46;;;;;;;2.75;2.10;;;15.70;70.60;;;;;;4977374;28;20419;-71
2021/07/29 06:33:14;;;;;;;2.30;2.00;;;15.70;70.90;;;;;;4976114;28;20027;-71
2021/07/29 06:35:41;;;;;;;2.42;2.22;;;15.60;71.30;;;;;;4977236;28;20027;-71
2021/07/29 06:38:08;;;;;;;3.15;2.20;;;15.60;71.30;;;;;;4975903;28;20026;-71
2021/07/29 06:40:36;;;;;;;2.50;2.13;;;15.50;71.40;;;;;;4977275;28;20026;-72
2021/07/29 06:43:03;;;;;;;2.65;2.22;;;15.50;72.20;;;;;;4977140;28;20031;-71
2021/07/29 06:45:31;;;;;;;2.25;2.03;;;15.30;72.40;;;;;;4977231;28;20471;-71
2021/07/29 06:47:58;;;;;;;3.83;2.15;;;15.20;72.80;;;;;;4977223;28;20030;-71
2021/07/29 06:50:25;;;;;;;4.07;2.40;;;15.20;73.90;;;;;;4977050;28;20054;-71
2021/07/29 06:52:53;;;;;;;2.47;2.08;;;15.10;73.60;;;;;;4975559;28;20093;-71
2021/07/29 06:55:20;;;;;;;2.00;1.80;;;15.10;73.40;;;;;;4976959;28;20027;-70
2021/07/29 06:57:47;;;;;;;2.78;2.35;;;15.20;73.00;;;;;;4976879;28;20046;-70
2021/07/29 07:00:16;;;;;;;2.58;2.38;;;15.20;73.40;;;;;;4976750;28;20019;-70
2021/07/29 07:02:43;;;;;;;2.47;2.15;;;15.10;74.30;;;;;;4976850;28;20045;-71
2021/07/29 07:05:11;;;;;;;4.15;2.17;;;15.00;74.30;;;;;;4975514;28;20023;-71
2021/07/29 07:07:38;;;;;;;3.72;2.40;;;15.00;74.10;;;;;;4976750;28;20026;-71
2021/07/29 07:10:06;;;;;;;2.15;1.92;;;14.90;74.10;;;;;;4976502;28;20027;-72
2021/07/29 07:12:35;;;;;;;3.95;2.15;;;14.80;75.00;;;;;;4974054;28;20046;-70
2021/07/29 07:15:03;;;;;;;2.70;2.45;;;14.60;75.30;;;;;;4976499;28;20403;-71
2021/07/29 07:17:30;;;;;;;3.13;2.08;;;14.50;77.00;;;;;;4976523;28;20361;-71
2021/07/29 07:20:01;;;;;;;2.97;1.92;;;14.40;76.50;;;;;;4976480;28;20030;-72
2021/07/29 07:22:29;;;;;;;3.20;2.33;;;14.30;76.50;;;;;;4976747;28;20109;-71
2021/07/29 07:24:56;;;;;;;5.72;2.45;;;14.20;76.10;;;;;;4976407;28;20391;-70
2021/07/29 07:27:24;;;;;;;3.67;2.30;;;14.10;78.30;;;;;;4976338;28;20093;-69
2021/07/29 07:29:51;;;;;;;3.55;2.45;;;14.10;79.60;;;;;;4976251;28;20105;-69
2021/07/29 07:32:18;;;;;;;4.20;2.10;;;14.10;82.30;;;;;;4974976;28;20023;-71
2021/07/29 07:34:46;;;;;;;5.53;3.00;;;13.90;81.20;;;;;;4976122;28;20019;-70
2021/07/29 07:37:13;;;;;;;2.92;2.67;;;13.90;85.50;;;;;;4975043;28;20027;-70
2021/07/29 07:39:40;;;;;;;3.03;2.40;;;13.90;79.60;;;;;;4976499;28;20431;-69
2021/07/29 07:42:08;;;;;;;5.40;2.70;;;13.90;78.50;;;;;;4974566;28;20022;-70
2021/07/29 07:44:35;;;;;;;3.55;2.60;;;13.90;78.40;;;;;;4976221;28;20030;-69
2021/07/29 07:47:03;;;;;;;4.63;2.85;;;13.90;77.70;;;;;;4975980;28;20110;-68
2021/07/29 07:49:30;;;;;;;4.03;2.90;;;13.80;78.20;;;;;;4975947;28;20504;-69
2021/07/29 07:51:57;;;;;;;3.55;3.25;;;13.80;79.40;;;;;;4974840;28;20117;-69
2021/07/29 07:54:25;;;;;;;4.35;2.90;;;13.70;78.50;;;;;;4976060;28;20394;-69
2021/07/29 07:56:52;;;;;;;3.50;2.92;;;13.70;78.00;;;;;;4975892;28;20023;-68
2021/07/29 07:59:20;;;;;;;4.05;2.80;;;13.70;78.20;;;;;;4975899;28;20029;-68
2021/07/29 08:01:47;;;;;;;7.55;3.10;;;13.70;78.20;;;;;;4974524;28;20497;-69
2021/07/29 08:04:14;;;;;;;4.72;3.30;;;13.70;78.20;;;;;;4975798;28;20074;-69
2021/07/29 08:06:42;;;;;;;4.40;3.33;;;13.60;80.00;;;;;;4975675;28;20061;-68
2021/07/29 08:09:09;;;;;;;4.65;3.42;;;13.40;80.20;;;;;;4975584;28;20065;-69
2021/07/29 08:11:37;;;;;;;6.15;3.42;;;13.40;80.10;;;;;;4975555;28;20129;-68
2021/07/29 08:14:04;;;;;;;5.50;3.40;;;13.40;79.00;;;;;;4975502;28;20023;-68
2021/07/29 08:16:31;;;;;;;4.07;3.22;;;13.30;79.90;;;;;;4975433;28;20047;-69
2021/07/29 08:18:59;;;;;;;8.73;5.93;;;13.40;79.20;;;;;;4975487;28;20098;-68
2021/07/29 08:21:26;;;;;;;20.73;12.35;;;13.30;79.70;;;;;;4975399;28;20042;-69
2021/07/29 08:23:53;;;;;;;8.82;5.38;;;13.30;80.80;;;;;;4975120;28;20499;-69
2021/07/29 08:26:20;;;;;;;5.53;3.80;;;13.40;79.10;;;;;;4975404;28;20053;-68
2021/07/29 08:28:51;;;;;;;12.38;7.95;;;13.40;79.20;;;;;;4973984;28;20027;-68
2021/07/29 08:31:20;;;;;;;4.65;3.03;;;13.30;80.90;;;;;;4975200;28;20023;-68
2021/07/29 08:33:48;;;;;;;7.18;5.60;;;13.20;80.30;;;;;;4975239;28;20034;-68
2021/07/29 08:36:17;;;;;;;5.90;4.28;;;13.20;81.10;;;;;;4975031;28;20388;-69
2021/07/29 08:38:46;;;;;;;11.70;7.35;;;13.10;81.30;;;;;;4975155;28;20019;-68
2021/07/29 08:41:16;;;;;;;14.88;8.95;;;13.00;83.20;;;;;;4974963;28;20027;-68
2021/07/29 08:43:45;;;;;;;5.00;3.38;;;12.90;82.80;;;;;;4973711;28;20414;-68
2021/07/29 08:46:18;;;;;;;5.45;3.08;;;12.90;82.20;;;;;;4975048;28;20454;-68
2021/07/29 08:48:50;;;;;;;6.65;4.45;;;12.90;82.70;;;;;;4975052;28;20038;-68
2021/07/29 08:51:20;;;;;;;5.78;3.70;;;12.90;82.80;;;;;;4974969;28;20480;-69
2021/07/29 08:53:51;;;;;;;6.20;4.43;;;12.80;82.90;;;;;;4974926;28;20019;-69
2021/07/29 08:56:24;;;;;;;;;;;12.80;83.00;;;;;;4975261;28;20054;-68
2021/07/29 08:58:52;;;;;;;5.57;3.67;;;12.80;83.00;;;;;;4974783;28;19906;-68
2021/07/29 09:01:20;;;;;;;5.82;3.55;;;12.90;82.80;;;;;;4973495;28;20034;-68
2021/07/29 09:03:52;;;;;;;6.10;3.25;;;12.90;82.70;;;;;;4974650;28;20015;-67
2021/07/29 09:06:19;;;;;;;5.10;4.05;;;12.90;82.80;;;;;;4974732;28;20033;-68
2021/07/29 09:08:52;;;;;;;5.72;4.00;;;13.00;82.70;;;;;;4974799;28;20109;-68
2021/07/29 09:11:39;;;;;;;9.55;5.15;;;13.00;82.60;;;;;;4972874;28;20027;-68
2021/07/29 09:14:11;;;;;;;12.20;6.97;;;13.00;83.20;;;;;;4974540;28;20154;-69
2021/07/29 09:16:57;;;;;;;12.13;6.85;;;12.90;83.80;;;;;;4974532;28;20019;-69
2021/07/29 09:19:41;;;;;;;9.95;6.80;;;12.80;84.50;;;;;;4973476;28;20078;-68
2021/07/29 09:22:17;;;;;;;9.35;5.03;;;12.70;85.00;;;;;;4974407;28;20019;-68
2021/07/29 09:25:02;;;;;;;5.45;4.40;;;12.60;85.00;;;;;;4974419;28;20027;-68
2021/07/29 09:27:42;;;;;;;3.97;3.47;;;12.60;85.00;;;;;;4974407;28;20019;-68
2021/07/29 09:30:23;;;;;;;5.05;3.72;;;12.60;85.30;;;;;;4974232;28;20019;-68
2021/07/29 09:33:13;;;;;;;6.68;3.28;;;12.60;84.90;;;;;;4974363;28;20027;-68
2021/07/29 09:35:49;;;;;;;7.60;3.90;;;12.50;85.40;;;;;;4973655;28;20035;-68
2021/07/29 09:38:24;;;;;;;5.32;3.50;;;12.50;85.70;;;;;;4974136;28;20026;-68
2021/07/29 09:40:53;;;;;;;6.63;4.15;;;12.40;86.10;;;;;;4972809;28;20499;-68
2021/07/29 09:43:22;;;;;;;5.65;4.03;;;12.40;86.50;;;;;;4974155;28;20029;-69
2021/07/29 09:45:53;;;;;;;9.88;3.83;;;12.40;86.10;;;;;;4974163;28;20050;-69
2021/07/29 09:48:24;;;;;;;6.25;4.20;;;12.40;86.40;;;;;;4974067;28;20029;-68
2021/07/29 09:50:55;;;;;;;5.10;4.13;;;12.30;86.60;;;;;;4974073;28;20034;-69
2021/07/29 09:53:23;;;;;;;5.75;3.70;;;12.30;86.80;;;;;;4973992;28;20119;-68
2021/07/29 09:55:51;;;;;;;6.20;3.80;;;12.30;87.50;;;;;;4973909;28;20042;-69
2021/07/29 09:58:18;;;;;;;7.50;3.90;;;12.20;88.00;;;;;;4974076;28;20034;-69
2021/07/29 10:00:46;;;;;;;7.03;3.85;;;12.10;87.80;;;;;;4972572;28;20073;-69
2021/07/29 10:03:14;;;;;;;5.55;3.42;;;12.10;88.10;;;;;;4973877;28;20476;-69
2021/07/29 10:05:48;;;;;;;6.80;3.80;;;12.10;88.60;;;;;;4973956;28;20023;-68
2021/07/29 10:08:44;;;;;;;4.68;3.70;;;12.00;88.50;;;;;;4972506;28;20352;-69
2021/07/29 10:11:18;;;;;;;5.88;3.72;;;12.10;88.60;;;;;;4963549;28;20425;-69
2021/07/29 10:13:45;;;;;;;6.97;4.35;;;12.00;89.50;;;;;;4973655;28;20046;-69
2021/07/29 10:16:39;;;;;;;5.93;3.75;;;12.00;89.10;;;;;;4973567;28;20058;-69
2021/07/29 10:19:09;;;;;;;5.90;3.70;;;12.00;89.30;;;;;;4971703;28;20372;-69
2021/07/29 10:21:38;;;;;;;7.78;4.15;;;12.00;88.80;;;;;;4973786;28;20023;-69
2021/07/29 10:24:07;;;;;;;6.40;3.70;;;12.00;88.70;;;;;;4973583;28;20023;-69
2021/07/29 10:26:56;;;;;;;7.68;3.80;;;12.00;88.90;;;;;;4973644;28;20057;-69
2021/07/29 10:29:29;;;;;;;7.10;3.65;;;11.90;89.50;;;;;;4972117;28;20113;-69
2021/07/29 10:32:12;;;;;;;6.15;3.20;;;11.90;89.50;;;;;;4972185;28;20030;-69
2021/07/29 10:34:40;;;;;;;6.32;3.50;;;11.80;89.80;;;;;;4972116;28;20557;-70
2021/07/29 10:37:08;;;;;;;5.63;3.20;;;11.80;89.60;;;;;;4971787;28;20023;-70
2021/07/29 10:39:58;;;;;;;6.05;3.38;;;11.80;89.80;;;;;;4971990;28;20546;-71
2021/07/29 10:42:33;;;;;;;7.70;3.45;;;11.90;89.60;;;;;;4973257;28;20502;-70
2021/07/29 10:45:01;;;;;;;5.72;3.28;;;11.90;89.70;;;;;;4972377;28;20126;-69
2021/07/29 10:47:38;;;;;;;7.43;3.70;;;11.80;89.80;;;;;;4975423;28;20027;-69
2021/07/29 10:50:07;;;;;;;7.00;3.15;;;11.80;90.10;;;;;;4976812;28;20026;-69
2021/07/29 10:52:36;;;;;;;7.93;3.30;;;11.70;90.10;;;;;;4975402;28;20023;-69
2021/07/29 10:55:04;;;;;;;8.45;3.55;;;11.70;90.20;;;;;;4976601;28;20105;-70
2021/07/29 10:57:31;;;;;;;4.85;3.03;;;11.70;90.60;;;;;;4975523;28;20023;-70
2021/07/29 11:00:00;;;;;;;6.88;3.78;;;11.70;90.40;;;;;;4975283;28;20023;-69
2021/07/29 11:02:44;;;;;;;6.95;3.72;;;11.70;90.30;;;;;;4976520;28;20034;-70
2021/07/29 11:05:16;;;;;;;4.88;3.70;;;11.60;90.50;;;;;;4976786;28;20395;-70
2021/07/29 11:07:43;;;;;;;7.07;4.10;;;11.60;90.60;;;;;;4975312;28;20030;-70
2021/07/29 11:10:15;;;;;;;6.00;4.00;;;11.60;90.60;;;;;;4976681;28;20038;-69
2021/07/29 11:12:45;;;;;;;7.78;3.88;;;11.60;90.60;;;;;;4975069;28;20063;-70
2021/07/29 11:15:13;;;;;;;7.18;4.22;;;11.60;90.60;;;;;;4976403;28;20121;-69
2021/07/29 11:17:40;;;;;;;9.68;4.45;;;11.60;90.60;;;;;;4976409;28;20073;-70
2021/07/29 11:20:10;;;;;;;5.47;3.83;;;11.60;90.60;;;;;;4976390;28;20448;-71
2021/07/29 11:22:48;;;;;;;6.53;3.92;;;11.60;90.60;;;;;;4976491;28;20102;-70
2021/07/29 11:25:16;;;;;;;6.80;4.25;;;11.60;90.60;;;;;;4976330;28;20031;-70
2021/07/29 11:27:44;;;;;;;8.70;4.68;;;11.60;90.60;;;;;;4976286;28;20392;-70
2021/07/29 11:30:12;;;;;;;6.13;4.40;;;11.60;90.60;;;;;;4976230;28;20027;-70
2021/07/29 11:32:44;;;;;;;6.95;4.20;;;11.60;90.70;;;;;;4976168;28;20030;-69
2021/07/29 11:35:20;;;;;;;9.60;4.50;;;11.50;90.90;;;;;;4976137;28;20041;-69
2021/07/29 11:37:48;;;;;;;7.70;4.20;;;11.50;90.70;;;;;;4974626;28;20065;-68
2021/07/29 11:40:18;;;;;;;8.13;4.40;;;11.50;90.80;;;;;;4976139;28;20030;-68
2021/07/29 11:42:46;;;;;;;6.03;4.20;;;11.50;90.80;;;;;;4974703;28;20046;-69
2021/07/29 11:45:23;;;;;;;8.10;4.75;;;11.50;90.90;;;;;;4975989;28;20041;-69
2021/07/29 11:47:51;;;;;;;5.97;4.03;;;11.40;91.50;;;;;;4976081;28;20455;-68
2021/07/29 11:50:42;;;;;;;6.57;3.50;;;11.40;91.00;;;;;;4975868;28;20023;-68
2021/07/29 11:53:10;;;;;;;5.88;4.10;;;11.40;91.10;;;;;;4975795;28;20031;-68
2021/07/29 11:55:39;;;;;;;7.18;4.70;;;11.30;91.30;;;;;;4974469;28;20046;-69
2021/07/29 11:58:13;;;;;;;8.43;4.57;;;11.30;91.10;;;;;;4973540;28;20030;-70
2021/07/29 12:00:41;;;;;;;5.57;4.50;;;11.30;91.20;;;;;;4974427;28;20434;-68
2021/07/29 12:03:11;;;;;;;9.95;5.07;;;11.30;91.20;;;;;;4975710;28;20019;-69
2021/07/29 12:05:41;;;;;;;6.18;4.38;;;11.30;91.30;;;;;;4975678;28;20027;-68
2021/07/29 12:08:09;;;;;;;6.72;4.38;;;11.20;91.40;;;;;;4976154;28;20035;-69
2021/07/29 12:10:37;;;;;;;11.85;4.72;;;11.20;91.30;;;;;;4975736;28;20081;-69
2021/07/29 12:13:08;;;;;;;9.32;4.50;;;11.20;91.40;;;;;;4975115;28;20065;-69
2021/07/29 12:15:35;;;;;;;8.30;4.40;;;11.10;91.50;;;;;;4975366;28;20419;-69
2021/07/29 12:18:19;;;;;;;6.20;4.43;;;11.10;91.60;;;;;;4975186;28;20564;-69
2021/07/29 12:20:49;;;;;;;6.25;4.10;;;11.10;91.70;;;;;;4975370;28;20029;-69
2021/07/29 12:23:17;;;;;;;8.05;4.35;;;11.00;91.60;;;;;;4975202;28;20392;-70
2021/07/29 12:25:46;;;;;;;7.88;3.78;;;11.00;91.60;;;;;;4975185;28;20076;-69
2021/07/29 12:28:14;;;;;;;7.07;4.43;;;11.00;91.70;;;;;;4975001;28;20033;-70
2021/07/29 12:30:48;;;;;;;5.47;4.00;;;10.90;91.80;;;;;;4975115;28;20034;-69
2021/07/29 12:33:22;;;;;;;5.95;4.20;;;10.90;92.00;;;;;;4975226;28;20107;-69
2021/07/29 12:36:01;;;;;;;7.15;4.13;;;10.90;92.10;;;;;;4975181;28;20023;-70
2021/07/29 12:38:33;;;;;;;7.25;4.20;;;10.90;92.00;;;;;;4975633;28;20027;-68
2021/07/29 12:41:04;;;;;;;7.63;4.13;;;10.80;92.10;;;;;;4973896;28;20030;-68
2021/07/29 12:43:33;;;;;;;7.38;4.50;;;10.80;92.10;;;;;;4974910;28;20022;-69
2021/07/29 12:46:06;;;;;;;10.10;4.75;;;10.80;92.30;;;;;;4974853;28;20074;-70
2021/07/29 12:49:00;;;;;;;7.40;4.28;;;10.80;92.30;;;;;;4974854;28;20029;-70
2021/07/29 12:51:48;;;;;;;10.68;4.30;;;10.70;92.40;;;;;;4974742;28;20061;-70
2021/07/29 12:54:19;;;;;;;8.05;4.75;;;10.70;92.30;;;;;;4974650;28;20023;-70
2021/07/29 12:57:04;;;;;;;6.55;4.45;;;10.70;92.50;;;;;;4973319;28;20039;-70
2021/07/29 12:59:31;;;;;;;7.20;4.57;;;10.60;92.60;;;;;;4973352;28;20023;-70
2021/07/29 13:01:58;;;;;;;9.10;5.00;;;10.60;92.80;;;;;;4974559;28;20398;-71